Time;durP1;ratioP1;P1;durP2;ratioP2;P2;SDS_P1;SDS_P2;PMS_P1;PMS_P2;Temp;Humidity;BMP_temperature;BMP_pressure;BME280_temperature;BME280_humidity;BME280_pressure;Samples;Min_cycle;Max_cycle;Signal;HPM_P1;HPM_P2
2021/08/27 00:00:49;;;;;;;5.75;2.63;;;13.90;99.90;;;;;;5078139;28;20043;-86
2021/08/27 00:03:15;;;;;;;6.50;3.08;;;13.90;99.90;;;;;;5078053;28;20038;-86
2021/08/27 00:05:41;;;;;;;5.07;2.75;;;13.90;99.90;;;;;;5077767;28;20028;-86
2021/08/27 00:08:06;;;;;;;4.57;2.67;;;13.90;99.90;;;;;;5077678;28;20395;-86
2021/08/27 00:10:32;;;;;;;6.28;3.13;;;13.90;99.90;;;;;;5077720;28;20518;-86
2021/08/27 00:12:58;;;;;;;4.30;2.70;;;14.00;99.90;;;;;;5077542;28;20114;-86
2021/08/27 00:15:23;;;;;;;4.93;2.58;;;14.10;99.90;;;;;;5095613;28;20024;-86
2021/08/27 00:17:49;;;;;;;5.18;2.42;;;14.10;99.90;;;;;;5077450;28;20039;-86
2021/08/27 00:20:15;;;;;;;8.13;2.80;;;14.20;99.90;;;;;;5077724;28;20107;-86
2021/08/27 00:22:41;;;;;;;5.00;2.63;;;14.10;99.90;;;;;;5077308;28;20027;-86
2021/08/27 00:25:08;;;;;;;7.72;2.75;;;14.10;99.90;;;;;;5077354;28;20020;-86
2021/08/27 00:27:33;;;;;;;4.47;2.55;;;14.10;99.90;;;;;;5077554;28;20054;-86
2021/08/27 00:30:00;;;;;;;4.72;2.33;;;14.20;99.90;;;;;;5077553;28;20032;-86
2021/08/27 00:32:27;;;;;;;3.85;2.35;;;14.40;99.90;;;;;;5077232;28;20054;-86
2021/08/27 00:34:53;;;;;;;4.15;2.38;;;14.30;99.90;;;;;;5077075;28;20024;-86
2021/08/27 00:37:19;;;;;;;7.50;2.60;;;14.10;99.90;;;;;;5077067;28;20031;-86
2021/08/27 00:39:45;;;;;;;5.53;2.60;;;14.10;99.90;;;;;;5077042;28;20388;-86
2021/08/27 00:42:11;;;;;;;6.03;2.75;;;14.10;99.90;;;;;;5077027;28;20020;-86
2021/08/27 00:44:37;;;;;;;5.90;2.40;;;14.10;99.90;;;;;;5076732;28;20019;-86
2021/08/27 00:47:03;;;;;;;4.88;2.30;;;14.20;99.90;;;;;;5094605;28;20028;-86
2021/08/27 00:49:29;;;;;;;5.18;2.55;;;14.10;99.90;;;;;;5094893;28;20052;-86
2021/08/27 00:51:55;;;;;;;7.07;2.60;;;14.00;99.90;;;;;;5076938;28;20020;-86
2021/08/27 00:54:21;;;;;;;6.38;2.35;;;13.90;99.90;;;;;;5076902;28;20031;-86
2021/08/27 00:56:51;;;;;;;7.35;2.35;;;13.70;99.90;;;;;;5095180;28;20032;-86
2021/08/27 00:59:17;;;;;;;5.20;2.08;;;13.60;99.90;;;;;;5085000;28;20391;-86
2021/08/27 01:01:43;;;;;;;4.75;2.60;;;13.70;99.90;;;;;;5096506;28;20021;-85
2021/08/27 01:04:10;;;;;;;4.03;2.30;;;13.70;99.90;;;;;;5086193;28;20021;-86
2021/08/27 01:06:41;;;;;;;6.03;2.33;;;13.80;99.90;;;;;;5077878;28;20054;-86
2021/08/27 01:09:12;;;;;;;4.68;2.65;;;13.90;99.90;;;;;;5077098;28;20031;-87
2021/08/27 01:11:45;;;;;;;4.60;2.35;;;14.10;99.90;;;;;;5076617;28;20502;-86
2021/08/27 01:14:19;;;;;;;3.65;2.35;;;14.00;99.90;;;;;;5076322;28;20073;-86
2021/08/27 01:16:49;;;;;;;3.38;2.25;;;13.90;99.90;;;;;;5094700;28;20028;-86
2021/08/27 01:19:50;;;;;;;7.50;2.72;;;13.80;99.90;;;;;;5076329;28;20074;-87
2021/08/27 01:22:53;;;;;;;6.65;2.30;;;14.10;99.90;;;;;;5094409;28;20476;-86
2021/08/27 01:25:22;;;;;;;6.97;2.55;;;14.10;99.90;;;;;;5076166;28;20020;-86
2021/08/27 01:27:50;;;;;;;5.05;2.50;;;14.20;99.90;;;;;;5076174;28;20074;-86
2021/08/27 01:30:21;;;;;;;5.82;2.33;;;14.10;99.90;;;;;;5076112;28;20395;-86
2021/08/27 01:33:00;;;;;;;5.28;2.47;;;14.30;99.90;;;;;;5094497;28;20016;-86
2021/08/27 01:35:30;;;;;;;4.00;2.20;;;14.40;99.90;;;;;;5094106;28;20028;-86
2021/08/27 01:37:59;;;;;;;3.70;2.35;;;14.40;99.90;;;;;;5094066;28;20357;-86
2021/08/27 01:40:28;;;;;;;6.82;2.67;;;14.30;99.90;;;;;;5075836;28;20119;-86
2021/08/27 01:42:56;;;;;;;4.97;2.53;;;14.30;99.90;;;;;;5075896;28;20020;-86
2021/08/27 01:45:23;;;;;;;9.20;2.33;;;14.30;99.90;;;;;;5093972;28;20085;-86
2021/08/27 01:47:49;;;;;;;6.82;2.40;;;14.20;99.90;;;;;;5093767;28;20417;-86
2021/08/27 01:50:15;;;;;;;8.80;2.38;;;14.20;99.90;;;;;;5075798;28;20072;-86
2021/08/27 01:52:43;;;;;;;5.40;2.38;;;14.10;99.90;;;;;;5075686;28;20031;-86
2021/08/27 01:55:10;;;;;;;7.28;2.50;;;14.10;99.90;;;;;;5093729;28;20105;-86
2021/08/27 01:57:37;;;;;;;4.05;2.28;;;14.10;99.90;;;;;;5075520;28;20027;-86
2021/08/27 02:00:07;;;;;;;4.10;2.38;;;14.10;99.90;;;;;;5075629;28;20494;-86
2021/08/27 02:02:34;;;;;;;6.47;2.25;;;14.10;99.90;;;;;;5075568;28;20024;-86
2021/08/27 02:05:04;;;;;;;5.28;2.10;;;14.40;99.90;;;;;;5075560;28;20077;-86
2021/08/27 02:07:30;;;;;;;6.35;2.08;;;14.50;99.90;;;;;;5075580;28;20031;-86
2021/08/27 02:09:57;;;;;;;4.47;2.17;;;14.50;99.90;;;;;;5075553;28;20468;-86
2021/08/27 02:12:24;;;;;;;3.33;2.25;;;14.40;99.90;;;;;;5075457;28;20391;-85
2021/08/27 02:14:52;;;;;;;5.22;2.08;;;14.50;99.90;;;;;;5093485;28;20027;-86
2021/08/27 02:17:19;;;;;;;3.10;2.13;;;14.50;99.90;;;;;;5075374;28;20020;-86
2021/08/27 02:19:45;;;;;;;4.95;1.90;;;14.60;99.90;;;;;;5075394;28;20038;-86
2021/08/27 02:22:14;;;;;;;6.75;2.45;;;14.60;99.90;;;;;;5075364;28;20492;-86
2021/08/27 02:24:45;;;;;;;8.07;2.13;;;14.50;99.90;;;;;;5075348;28;20127;-86
2021/08/27 02:27:11;;;;;;;7.53;2.00;;;14.30;99.90;;;;;;5075332;28;20031;-86
2021/08/27 02:29:39;;;;;;;4.32;2.10;;;14.00;99.90;;;;;;5075359;28;20028;-86
2021/08/27 02:32:09;;;;;;;3.50;2.22;;;13.90;99.90;;;;;;5093295;28;20449;-86
2021/08/27 02:34:38;;;;;;;5.18;2.00;;;14.10;99.90;;;;;;5075228;28;20025;-86
2021/08/27 02:37:05;;;;;;;4.97;2.15;;;14.20;99.90;;;;;;5075081;28;20102;-86
2021/08/27 02:39:31;;;;;;;3.65;2.25;;;14.20;99.90;;;;;;5093348;28;20047;-86
2021/08/27 02:41:57;;;;;;;4.47;2.10;;;14.20;99.90;;;;;;5075215;28;20449;-86
2021/08/27 02:44:26;;;;;;;5.07;2.03;;;14.20;99.90;;;;;;5075135;28;20017;-86
2021/08/27 02:46:51;;;;;;;5.35;2.25;;;14.50;99.90;;;;;;5075085;28;20025;-86
2021/08/27 02:49:17;;;;;;;4.13;2.17;;;14.60;99.90;;;;;;5093095;28;20059;-86
2021/08/27 02:52:26;;;;;;;6.20;2.20;;;14.70;99.90;;;;;;5075334;28;20458;-86
2021/08/27 02:55:17;;;;;;;5.95;2.53;;;14.70;99.90;;;;;;5075286;28;20047;-86
2021/08/27 02:58:11;;;;;;;3.78;2.08;;;14.70;99.90;;;;;;5075211;28;20027;-86
2021/08/27 03:00:58;;;;;;;5.07;1.90;;;14.70;99.90;;;;;;5083372;28;20044;-86
2021/08/27 03:03:26;;;;;;;6.07;2.45;;;14.80;99.90;;;;;;5075131;28;20483;-86
2021/08/27 03:06:19;;;;;;;7.65;2.60;;;14.80;99.90;;;;;;5074992;28;20027;-86
2021/08/27 03:08:54;;;;;;;6.80;2.40;;;14.70;99.90;;;;;;5095193;28;20020;-86
2021/08/27 03:11:25;;;;;;;7.20;2.60;;;14.60;99.90;;;;;;5085609;28;20036;-85
2021/08/27 03:13:58;;;;;;;7.93;2.70;;;14.60;99.90;;;;;;5095487;28;20035;-84
2021/08/27 03:16:26;;;;;;;4.45;2.38;;;14.50;99.90;;;;;;5081666;28;20047;-85
2021/08/27 03:19:01;;;;;;;7.60;2.80;;;14.40;99.90;;;;;;5078953;28;20016;-85
2021/08/27 03:21:27;;;;;;;7.30;2.53;;;14.40;99.90;;;;;;5079763;28;20055;-86
2021/08/27 03:23:57;;;;;;;5.15;2.25;;;14.40;99.90;;;;;;5078581;28;20052;-86
2021/08/27 03:26:27;;;;;;;6.82;2.60;;;14.30;99.90;;;;;;5096642;28;20032;-86
2021/08/27 03:29:02;;;;;;;5.25;2.65;;;14.20;99.90;;;;;;5078454;28;20028;-86
2021/08/27 03:31:28;;;;;;;7.07;3.13;;;14.10;99.90;;;;;;5078394;28;20028;-86
2021/08/27 03:33:55;;;;;;;7.15;2.90;;;14.10;99.90;;;;;;5078279;28;20062;-86
2021/08/27 03:36:28;;;;;;;11.85;4.30;;;14.20;99.90;;;;;;5078238;28;20441;-86
2021/08/27 03:38:56;;;;;;;9.45;2.83;;;14.40;99.90;;;;;;5078259;28;20020;-86
2021/08/27 03:41:26;;;;;;;13.52;4.00;;;14.60;99.90;;;;;;5078196;28;20021;-86
2021/08/27 03:43:52;;;;;;;6.65;3.53;;;14.80;99.90;;;;;;5078601;28;20389;-87
2021/08/27 03:46:18;;;;;;;8.57;3.67;;;14.70;99.90;;;;;;5078205;28;20058;-86
2021/08/27 03:48:44;;;;;;;6.25;3.78;;;14.80;99.90;;;;;;5077923;28;20044;-86
2021/08/27 03:51:10;;;;;;;4.07;2.45;;;14.80;99.90;;;;;;5096258;28;20188;-86
2021/08/27 03:53:37;;;;;;;8.23;3.45;;;15.10;99.90;;;;;;5078003;28;20027;-86
2021/08/27 03:56:05;;;;;;;5.13;3.17;;;14.90;99.90;;;;;;5077599;28;20020;-86
2021/08/27 03:58:31;;;;;;;6.70;2.75;;;14.80;99.90;;;;;;5078094;28;20107;-87
2021/08/27 04:00:57;;;;;;;7.35;2.90;;;14.80;99.90;;;;;;5077994;28;20024;-87
2021/08/27 04:03:24;;;;;;;5.80;3.00;;;14.90;99.90;;;;;;5095966;28;20099;-87
2021/08/27 04:06:01;;;;;;;5.53;2.80;;;14.80;99.90;;;;;;5077760;28;20028;-86
2021/08/27 04:08:28;;;;;;;4.95;2.45;;;14.70;99.90;;;;;;5077807;28;20104;-86
2021/08/27 04:10:54;;;;;;;6.00;3.22;;;14.80;99.90;;;;;;5077618;28;20030;-86
2021/08/27 04:13:20;;;;;;;6.03;2.60;;;14.90;99.90;;;;;;5077691;28;20391;-86
2021/08/27 04:15:45;;;;;;;5.03;2.70;;;14.90;99.90;;;;;;5095720;28;20024;-86
2021/08/27 04:18:11;;;;;;;4.22;2.50;;;14.80;99.90;;;;;;5077545;28;20480;-86
2021/08/27 04:20:37;;;;;;;5.95;2.97;;;14.80;99.90;;;;;;5076244;28;20016;-86
2021/08/27 04:23:02;;;;;;;5.13;2.65;;;14.80;99.90;;;;;;5077338;28;20024;-86
2021/08/27 04:25:29;;;;;;;5.80;2.83;;;14.70;99.90;;;;;;5077350;28;20407;-86
2021/08/27 04:27:54;;;;;;;7.13;2.65;;;14.70;99.90;;;;;;5077303;28;20028;-86
2021/08/27 04:30:20;;;;;;;5.25;2.50;;;14.70;99.90;;;;;;5077256;28;20041;-86
2021/08/27 04:32:46;;;;;;;5.38;2.10;;;14.80;99.90;;;;;;5095346;28;20016;-86
2021/08/27 04:35:11;;;;;;;5.63;2.80;;;14.80;99.90;;;;;;5077627;28;20046;-87
2021/08/27 04:37:37;;;;;;;4.78;2.33;;;14.80;99.90;;;;;;5077007;28;20361;-86
2021/08/27 04:40:03;;;;;;;4.40;2.30;;;14.80;99.90;;;;;;5077117;28;20031;-87
2021/08/27 04:42:29;;;;;;;7.50;2.00;;;14.70;99.90;;;;;;5076985;28;20110;-86
2021/08/27 04:44:55;;;;;;;5.93;2.78;;;14.60;99.90;;;;;;5077021;28;20387;-87
2021/08/27 04:47:21;;;;;;;7.88;1.98;;;14.60;99.90;;;;;;5076721;28;20027;-86
2021/08/27 04:49:46;;;;;;;5.47;2.33;;;14.40;99.90;;;;;;5076972;28;20024;-87
2021/08/27 04:52:12;;;;;;;5.55;2.45;;;14.30;99.90;;;;;;5076856;28;20107;-87
2021/08/27 04:54:38;;;;;;;7.07;2.60;;;14.30;99.90;;;;;;5076800;28;20387;-87
2021/08/27 04:57:04;;;;;;;4.47;2.13;;;14.30;99.90;;;;;;5076635;28;20115;-87
2021/08/27 04:59:30;;;;;;;5.03;2.55;;;14.40;99.90;;;;;;5094648;28;20055;-87
2021/08/27 05:01:55;;;;;;;4.05;2.00;;;14.30;99.90;;;;;;5094758;28;20039;-87
2021/08/27 05:04:21;;;;;;;5.65;2.60;;;14.40;99.90;;;;;;5076585;28;20032;-86
2021/08/27 05:06:47;;;;;;;9.75;2.92;;;14.60;99.90;;;;;;5076516;28;20026;-87
2021/08/27 05:09:14;;;;;;;5.43;2.55;;;14.70;99.90;;;;;;5076550;28;20060;-86
2021/08/27 05:11:40;;;;;;;4.47;2.50;;;14.80;99.90;;;;;;5076403;28;20028;-87
2021/08/27 05:14:06;;;;;;;4.47;2.95;;;14.80;99.90;;;;;;5076307;28;20072;-87
2021/08/27 05:16:31;;;;;;;4.60;2.47;;;14.80;99.90;;;;;;5094389;28;20035;-87
2021/08/27 05:18:57;;;;;;;5.38;2.90;;;14.80;99.90;;;;;;5076451;28;20050;-86
2021/08/27 05:21:23;;;;;;;9.15;3.28;;;14.80;99.90;;;;;;5094562;28;20107;-86
2021/08/27 05:23:50;;;;;;;4.45;3.05;;;14.90;99.90;;;;;;5098432;28;20065;-87
2021/08/27 05:26:16;;;;;;;8.68;4.22;;;14.80;99.90;;;;;;5115325;28;20020;-86
2021/08/27 05:28:41;;;;;;;5.97;2.80;;;14.80;99.90;;;;;;5094952;28;20024;-87
2021/08/27 05:31:09;;;;;;;10.18;5.07;;;14.80;99.90;;;;;;5077176;28;20020;-87
2021/08/27 05:33:36;;;;;;;10.57;4.57;;;14.80;99.90;;;;;;5076806;28;20032;-86
2021/08/27 05:36:01;;;;;;;7.40;4.65;;;14.70;99.90;;;;;;5094241;28;20484;-87
2021/08/27 05:38:27;;;;;;;10.25;5.28;;;14.90;99.90;;;;;;5076549;28;20017;-86
2021/08/27 05:40:53;;;;;;;6.68;5.28;;;14.80;99.90;;;;;;5075920;28;20545;-87
2021/08/27 05:43:18;;;;;;;8.23;5.18;;;14.70;99.90;;;;;;5094112;28;20039;-87
2021/08/27 05:45:44;;;;;;;11.85;4.95;;;14.70;99.90;;;;;;5075885;28;20062;-87
2021/08/27 05:48:10;;;;;;;12.05;6.40;;;14.70;99.90;;;;;;5075599;28;20055;-87
2021/08/27 05:50:35;;;;;;;9.00;6.00;;;14.70;99.90;;;;;;5094164;28;20419;-86
2021/08/27 05:53:01;;;;;;;8.48;6.13;;;14.70;99.90;;;;;;5093940;28;20536;-86
2021/08/27 05:55:27;;;;;;;12.77;7.45;;;14.90;99.90;;;;;;5075420;28;20070;-86
2021/08/27 05:57:53;;;;;;;9.05;4.65;;;14.80;99.90;;;;;;5075674;28;20020;-86
2021/08/27 06:00:18;;;;;;;8.13;3.35;;;14.80;99.90;;;;;;5076431;28;20070;-86
2021/08/27 06:02:46;;;;;;;7.85;4.43;;;14.90;99.90;;;;;;5075515;28;20016;-87
2021/08/27 06:05:11;;;;;;;8.57;4.72;;;14.90;99.90;;;;;;5075586;28;20054;-87
2021/08/27 06:07:37;;;;;;;6.63;3.47;;;14.90;99.90;;;;;;5093664;28;20499;-87
2021/08/27 06:10:03;;;;;;;7.47;4.22;;;14.90;99.90;;;;;;5093601;28;20475;-87
2021/08/27 06:12:29;;;;;;;7.78;4.57;;;15.10;99.90;;;;;;5093480;28;20388;-87
2021/08/27 06:14:55;;;;;;;7.10;4.22;;;15.20;99.90;;;;;;5075327;28;20020;-86
2021/08/27 06:17:20;;;;;;;10.32;4.35;;;15.20;99.90;;;;;;5075402;28;20024;-87
2021/08/27 06:19:46;;;;;;;6.97;3.40;;;15.20;99.90;;;;;;5075457;28;20540;-87
2021/08/27 06:22:12;;;;;;;9.45;4.25;;;15.30;99.90;;;;;;5075610;28;20034;-86
2021/08/27 06:24:38;;;;;;;7.53;3.83;;;15.30;99.90;;;;;;5075369;28;20043;-87
2021/08/27 06:27:04;;;;;;;9.88;4.03;;;15.30;99.90;;;;;;5075388;28;20020;-87
2021/08/27 06:29:34;;;;;;;9.10;3.58;;;15.20;99.90;;;;;;5075472;28;20509;-87
2021/08/27 06:31:59;;;;;;;9.80;4.75;;;15.10;99.90;;;;;;5075350;28;20050;-86
2021/08/27 06:34:25;;;;;;;8.45;3.67;;;15.10;99.90;;;;;;5075327;28;20036;-87
2021/08/27 06:36:51;;;;;;;8.70;4.18;;;15.10;99.90;;;;;;5075400;28;20031;-87
2021/08/27 06:39:16;;;;;;;8.52;3.70;;;15.00;99.90;;;;;;5075230;28;20051;-87
2021/08/27 06:41:42;;;;;;;7.47;4.60;;;15.20;99.90;;;;;;5075234;28;20418;-86
2021/08/27 06:44:08;;;;;;;6.45;4.35;;;15.20;99.90;;;;;;5095345;28;20023;-86
2021/08/27 06:46:34;;;;;;;8.82;4.00;;;15.30;99.90;;;;;;5079237;28;20032;-87
2021/08/27 06:48:59;;;;;;;7.18;3.33;;;15.40;99.90;;;;;;5078907;28;20059;-87
2021/08/27 06:51:27;;;;;;;10.90;5.15;;;15.50;99.90;;;;;;5079094;28;20036;-87
2021/08/27 06:53:53;;;;;;;6.55;4.25;;;15.50;99.90;;;;;;5078972;28;20055;-87
2021/08/27 06:56:20;;;;;;;8.82;4.32;;;15.60;99.90;;;;;;5078699;28;20075;-87
2021/08/27 06:58:46;;;;;;;7.20;4.07;;;15.60;99.90;;;;;;5078861;28;20058;-87
2021/08/27 07:01:12;;;;;;;8.95;4.60;;;15.60;99.90;;;;;;5078953;28;20063;-88
2021/08/27 07:03:37;;;;;;;8.40;5.35;;;15.50;99.90;;;;;;5078924;28;20020;-88
2021/08/27 07:06:03;;;;;;;7.32;4.38;;;15.40;99.90;;;;;;5079213;28;20540;-87
2021/08/27 07:08:29;;;;;;;5.25;3.40;;;15.30;99.90;;;;;;5078758;28;20024;-88
2021/08/27 07:10:55;;;;;;;7.47;4.28;;;15.50;99.90;;;;;;5078655;28;20050;-88
2021/08/27 07:13:21;;;;;;;10.20;4.00;;;15.60;99.90;;;;;;5078544;28;20077;-88
2021/08/27 07:15:47;;;;;;;6.90;4.03;;;15.70;99.90;;;;;;5096767;28;20028;-88
2021/08/27 07:18:13;;;;;;;10.68;6.07;;;15.80;99.90;;;;;;5078485;28;20025;-88
2021/08/27 07:20:39;;;;;;;7.35;4.43;;;15.80;99.90;;;;;;5078723;28;20047;-88
2021/08/27 07:23:05;;;;;;;8.40;4.07;;;15.70;99.90;;;;;;5078867;28;20047;-88
2021/08/27 07:25:31;;;;;;;11.20;4.63;;;15.80;99.90;;;;;;5078549;28;20028;-87
2021/08/27 07:27:57;;;;;;;9.07;3.47;;;15.90;99.90;;;;;;5078578;28;20028;-88
2021/08/27 07:30:23;;;;;;;6.80;3.25;;;15.80;99.90;;;;;;5078557;28;20047;-88
2021/08/27 07:32:49;;;;;;;11.63;3.75;;;15.80;99.90;;;;;;5078802;28;20020;-88
2021/08/27 07:35:14;;;;;;;10.45;2.80;;;15.70;99.90;;;;;;5079032;28;20032;-88
2021/08/27 07:37:41;;;;;;;7.28;2.63;;;15.80;99.90;;;;;;5086422;28;20024;-88
2021/08/27 07:40:10;;;;;;;9.02;2.88;;;15.80;99.90;;;;;;5102259;28;20032;-87
2021/08/27 07:42:36;;;;;;;6.18;2.70;;;15.80;99.90;;;;;;5096332;28;20035;-88
2021/08/27 07:45:03;;;;;;;5.50;2.35;;;15.70;99.90;;;;;;5080105;28;20426;-88
2021/08/27 07:47:28;;;;;;;10.10;2.70;;;15.80;99.90;;;;;;5097419;28;20384;-88
2021/08/27 07:49:54;;;;;;;7.30;2.28;;;15.80;99.90;;;;;;5079044;28;20027;-88
2021/08/27 07:52:20;;;;;;;6.35;2.20;;;15.90;99.90;;;;;;5096513;28;20034;-88
2021/08/27 07:54:45;;;;;;;6.78;2.00;;;15.90;99.90;;;;;;5077947;28;20490;-89
2021/08/27 07:57:11;;;;;;;5.72;2.10;;;16.00;99.90;;;;;;5077991;28;20036;-88
2021/08/27 07:59:37;;;;;;;9.60;2.78;;;16.20;99.90;;;;;;5077866;28;20479;-89
2021/08/27 08:02:03;;;;;;;2.72;1.80;;;16.30;99.90;;;;;;5079021;28;20415;-88
2021/08/27 08:04:29;;;;;;;5.85;2.08;;;16.30;99.90;;;;;;5078047;28;20082;-91
2021/08/27 08:06:54;;;;;;;3.67;1.73;;;16.50;99.90;;;;;;5077960;28;20028;-89
2021/08/27 08:09:20;;;;;;;4.07;1.58;;;16.50;99.90;;;;;;5078029;28;20476;-89
2021/08/27 08:11:46;;;;;;;5.47;2.00;;;16.70;99.90;;;;;;5095918;28;20430;-88
2021/08/27 08:14:11;;;;;;;4.35;1.50;;;16.70;99.90;;;;;;5077694;28;20133;-88
2021/08/27 08:16:37;;;;;;;4.10;1.70;;;16.90;99.90;;;;;;5077571;28;20024;-87
2021/08/27 08:19:03;;;;;;;5.65;2.03;;;16.70;99.90;;;;;;5077597;28;20107;-88
2021/08/27 08:21:29;;;;;;;4.90;2.17;;;16.50;99.90;;;;;;5095603;28;20016;-88
2021/08/27 08:23:55;;;;;;;8.38;2.30;;;16.50;99.90;;;;;;5077399;28;20021;-88
2021/08/27 08:26:22;;;;;;;6.82;2.20;;;16.30;99.90;;;;;;5077372;28;20073;-88
2021/08/27 08:28:49;;;;;;;5.07;1.90;;;16.20;99.90;;;;;;5077289;28;20024;-87
2021/08/27 08:31:20;;;;;;;6.63;1.60;;;16.50;99.90;;;;;;5077255;28;20020;-88
2021/08/27 08:33:48;;;;;;;6.28;1.70;;;16.80;99.90;;;;;;5095537;28;20487;-88
2021/08/27 08:36:15;;;;;;;5.18;1.80;;;16.80;99.90;;;;;;5095319;28;20028;-87
2021/08/27 08:38:40;;;;;;;6.50;1.77;;;16.70;99.90;;;;;;5077229;28;20122;-86
2021/08/27 08:41:06;;;;;;;6.38;1.48;;;16.80;99.90;;;;;;5077207;28;20104;-88
2021/08/27 08:43:32;;;;;;;4.05;1.05;;;17.10;99.90;;;;;;5077194;28;20020;-88
2021/08/27 08:45:58;;;;;;;4.07;1.10;;;17.50;99.90;;;;;;5077068;28;20020;-89
2021/08/27 08:48:26;;;;;;;6.63;1.67;;;17.90;99.90;;;;;;5076804;28;20044;-88
2021/08/27 08:50:53;;;;;;;3.97;1.25;;;18.10;99.90;;;;;;5076897;28;20480;-90
2021/08/27 08:53:23;;;;;;;5.43;1.60;;;18.00;99.90;;;;;;5076939;28;20035;-90
2021/08/27 08:55:51;;;;;;;2.50;1.05;;;17.90;99.90;;;;;;5076705;28;20032;-86
2021/08/27 08:58:17;;;;;;;4.40;1.40;;;17.60;99.90;;;;;;5076764;28;20016;-86
2021/08/27 09:00:44;;;;;;;4.53;1.35;;;17.40;99.90;;;;;;5094755;28;20081;-86
2021/08/27 09:03:09;;;;;;;4.55;1.38;;;17.20;99.90;;;;;;5076575;28;20396;-86
2021/08/27 09:05:38;;;;;;;4.35;1.40;;;17.10;99.90;;;;;;5076442;28;20024;-85
2021/08/27 09:08:04;;;;;;;3.35;1.17;;;17.20;99.90;;;;;;5076016;28;20373;-86
2021/08/27 09:10:38;;;;;;;3.50;1.08;;;17.30;99.90;;;;;;5076474;28;20498;-86
2021/08/27 09:13:06;;;;;;;5.30;1.17;;;17.10;99.90;;;;;;5076697;28;20043;-86
2021/08/27 09:15:32;;;;;;;6.40;1.30;;;17.10;99.90;;;;;;5094413;28;20043;-87
2021/08/27 09:18:05;;;;;;;4.80;1.63;;;17.50;99.90;;;;;;5076187;28;20020;-87
2021/08/27 09:20:31;;;;;;;2.10;1.10;;;18.20;99.90;;;;;;5076255;28;20501;-87
2021/08/27 09:23:03;;;;;;;5.32;1.30;;;18.60;99.90;;;;;;5076197;28;20024;-87
2021/08/27 09:25:35;;;;;;;3.80;1.30;;;18.60;99.90;;;;;;5076146;28;20020;-86
2021/08/27 09:28:02;;;;;;;2.63;1.10;;;18.40;99.90;;;;;;5076159;28;20034;-86
2021/08/27 09:30:29;;;;;;;2.80;1.02;;;18.20;99.90;;;;;;5076061;28;20399;-86
2021/08/27 09:32:55;;;;;;;4.10;1.50;;;18.00;99.90;;;;;;5076048;28;20422;-86
2021/08/27 09:35:24;;;;;;;4.72;1.15;;;17.90;99.90;;;;;;5075916;28;20483;-84
2021/08/27 09:37:54;;;;;;;3.47;1.20;;;18.00;99.90;;;;;;5075833;28;20024;-83
2021/08/27 09:40:28;;;;;;;2.70;1.20;;;18.10;99.90;;;;;;5075935;28;20529;-83
2021/08/27 09:42:55;;;;;;;5.05;1.05;;;17.80;99.90;;;;;;5094053;28;20378;-84
2021/08/27 09:45:37;;;;;;;2.63;1.17;;;17.60;99.90;;;;;;5075771;28;20032;-84
2021/08/27 09:48:10;;;;;;;3.08;1.05;;;17.70;99.90;;;;;;5075574;28;20048;-84
2021/08/27 09:50:39;;;;;;;1.83;1.07;;;18.40;99.90;;;;;;5075744;28;20078;-84
2021/08/27 09:53:07;;;;;;;6.88;1.33;;;18.20;99.90;;;;;;5088243;28;20283;-85
2021/08/27 09:55:34;;;;;;;4.38;1.10;;;18.40;99.90;;;;;;5089226;28;20028;-86
2021/08/27 09:58:04;;;;;;;2.63;1.20;;;18.50;99.90;;;;;;5076669;28;20032;-89
2021/08/27 10:00:32;;;;;;;5.40;1.25;;;18.50;99.90;;;;;;5077122;28;20024;-86
2021/08/27 10:03:02;;;;;;;4.28;1.00;;;18.70;99.90;;;;;;5075786;28;20023;-86
2021/08/27 10:05:38;;;;;;;3.40;1.13;;;18.60;99.90;;;;;;5075511;28;20504;-86
2021/08/27 10:08:19;;;;;;;3.97;1.00;;;18.50;99.90;;;;;;5075547;28;20081;-86
2021/08/27 10:10:45;;;;;;;5.38;1.13;;;19.00;99.90;;;;;;5075463;28;20020;-86
2021/08/27 10:13:12;;;;;;;3.03;1.08;;;19.50;99.90;;;;;;5093501;28;20153;-86
2021/08/27 10:15:39;;;;;;;3.75;1.00;;;19.00;99.90;;;;;;5075144;28;20034;-85
2021/08/27 10:18:08;;;;;;;4.63;0.90;;;18.80;99.90;;;;;;5075250;28;20396;-85
2021/08/27 10:20:37;;;;;;;5.05;1.77;;;18.50;99.90;;;;;;5075338;28;20472;-86
2021/08/27 10:23:03;;;;;;;4.70;1.30;;;18.20;99.90;;;;;;5075423;28;20021;-85
2021/08/27 10:25:29;;;;;;;5.30;1.17;;;18.10;99.90;;;;;;5075210;28;20035;-85
2021/08/27 10:27:55;;;;;;;2.58;1.05;;;18.20;99.90;;;;;;5075553;28;20052;-86
2021/08/27 10:30:58;;;;;;;4.07;1.33;;;18.20;99.90;;;;;;5077909;28;20028;-86
2021/08/27 10:33:39;;;;;;;3.28;1.05;;;18.30;99.90;;;;;;5078954;28;20544;-85
2021/08/27 10:36:06;;;;;;;3.35;1.17;;;18.40;99.90;;;;;;5078617;28;20028;-86
2021/08/27 10:38:41;;;;;;;4.63;1.45;;;18.50;99.90;;;;;;5079040;28;20031;-86
2021/08/27 10:41:10;;;;;;;2.95;1.20;;;19.00;99.90;;;;;;5078833;28;20021;-87
2021/08/27 10:43:52;;;;;;;5.20;1.45;;;19.50;99.90;;;;;;5078352;28;20035;-86
2021/08/27 10:46:18;;;;;;;1.65;1.00;;;20.10;99.90;;;;;;5079088;28;20028;-86
2021/08/27 10:48:52;;;;;;;2.70;1.10;;;20.30;99.90;;;;;;5076787;28;20430;-87
2021/08/27 10:51:35;;;;;;;3.53;0.98;;;20.90;99.90;;;;;;5077407;28;20111;-86
2021/08/27 10:54:01;;;;;;;3.53;1.13;;;21.50;99.90;;;;;;5094819;28;20043;-87
2021/08/27 10:56:50;;;;;;;4.70;1.30;;;21.80;99.90;;;;;;5076953;28;20059;-86
2021/08/27 10:59:22;;;;;;;2.83;1.30;;;21.50;99.90;;;;;;5096660;28;20104;-85
2021/08/27 11:02:01;;;;;;;4.18;1.02;;;20.50;99.90;;;;;;5078537;28;20078;-85
2021/08/27 11:04:29;;;;;;;6.93;1.20;;;19.70;99.90;;;;;;5077343;28;20024;-85
2021/08/27 11:06:57;;;;;;;4.95;1.38;;;19.20;99.90;;;;;;5077410;28;20028;-85
2021/08/27 11:09:28;;;;;;;1.48;1.00;;;18.90;99.90;;;;;;5076984;28;20035;-85
2021/08/27 11:12:14;;;;;;;6.70;1.15;;;18.70;99.90;;;;;;5077314;28;20059;-85
2021/08/27 11:14:42;;;;;;;2.60;0.98;;;18.50;99.90;;;;;;5076854;28;20024;-85
2021/08/27 11:17:09;;;;;;;3.55;1.20;;;18.50;99.90;;;;;;5076566;28;20024;-85
2021/08/27 11:19:51;;;;;;;2.60;1.25;;;18.50;99.90;;;;;;5076562;28;20032;-85
2021/08/27 11:22:21;;;;;;;3.60;0.98;;;18.40;99.90;;;;;;5076648;28;20111;-85
2021/08/27 11:25:07;;;;;;;4.00;1.30;;;18.40;99.90;;;;;;5076938;28;20055;-85
2021/08/27 11:27:34;;;;;;;3.30;1.08;;;18.40;99.90;;;;;;5077027;28;20047;-85
2021/08/27 11:30:28;;;;;;;2.88;1.00;;;18.40;99.90;;;;;;5078637;28;20028;-87
2021/08/27 11:32:55;;;;;;;4.90;1.48;;;18.20;99.90;;;;;;5081101;28;20480;-86
2021/08/27 11:35:22;;;;;;;4.85;1.42;;;17.90;99.90;;;;;;5080148;28;20047;-85
2021/08/27 11:37:55;;;;;;;4.35;1.50;;;17.70;99.90;;;;;;5080438;28;20020;-86
2021/08/27 11:40:21;;;;;;;5.07;1.35;;;17.60;99.90;;;;;;5080415;28;20384;-85
2021/08/27 11:42:52;;;;;;;16.05;1.85;;;17.50;99.90;;;;;;5098187;28;20020;-86
2021/08/27 11:45:20;;;;;;;7.03;1.40;;;17.50;99.90;;;;;;5080538;28;20031;-88
2021/08/27 11:47:52;;;;;;;5.10;1.50;;;17.30;99.90;;;;;;5081056;28;20499;-88
2021/08/27 11:50:33;;;;;;;3.55;1.35;;;17.10;99.90;;;;;;5081539;28;20118;-88
2021/08/27 11:53:00;;;;;;;4.70;1.30;;;17.10;99.90;;;;;;5080708;28;20364;-88
2021/08/27 11:55:27;;;;;;;3.80;1.48;;;17.20;99.90;;;;;;5080438;28;20031;-88
2021/08/27 11:58:01;;;;;;;6.78;1.60;;;17.40;99.90;;;;;;5080611;28;20475;-88
2021/08/27 12:00:41;;;;;;;3.13;1.33;;;17.60;99.90;;;;;;5065296;28;20540;-89
2021/08/27 12:03:17;;;;;;;2.85;1.27;;;17.90;99.90;;;;;;5082545;28;20017;-88
2021/08/27 12:05:43;;;;;;;3.00;1.23;;;18.30;99.90;;;;;;5083124;28;20032;-88
2021/08/27 12:08:15;;;;;;;3.38;1.30;;;18.80;99.90;;;;;;5080690;28;20031;-89
2021/08/27 12:10:46;;;;;;;3.72;1.02;;;19.70;99.90;;;;;;5080422;28;20042;-88
2021/08/27 12:13:13;;;;;;;4.22;0.93;;;20.80;99.90;;;;;;5081167;28;20494;-88
2021/08/27 12:15:45;;;;;;;5.70;1.60;;;21.20;99.90;;;;;;5080712;28;20020;-87
2021/08/27 12:18:15;;;;;;;5.75;1.13;;;20.90;99.90;;;;;;5078914;28;20024;-88
2021/08/27 12:20:47;;;;;;;8.52;1.38;;;20.60;99.90;;;;;;5079602;28;20032;-88
2021/08/27 12:23:16;;;;;;;2.97;1.27;;;20.70;99.90;;;;;;5079591;28;20048;-88
2021/08/27 12:25:58;;;;;;;5.97;1.05;;;21.10;99.90;;;;;;5080339;28;20028;-88
2021/08/27 12:28:41;;;;;;;4.78;1.25;;;22.10;99.90;;;;;;5097912;28;20028;-87
2021/08/27 12:31:07;;;;;;;4.95;1.60;;;21.40;99.90;;;;;;5079534;28;20028;-88
2021/08/27 12:33:38;;;;;;;5.07;1.30;;;20.50;99.90;;;;;;5079435;28;20544;-88
2021/08/27 12:36:05;;;;;;;4.05;1.50;;;20.00;99.90;;;;;;5097618;28;20034;-88
2021/08/27 12:38:31;;;;;;;4.50;1.10;;;19.50;99.90;;;;;;5079616;28;20621;-89
2021/08/27 12:41:15;;;;;;;6.60;1.13;;;19.00;99.90;;;;;;5078331;28;20036;-88
2021/08/27 12:43:41;;;;;;;4.60;1.25;;;18.70;99.90;;;;;;5079424;28;20150;-88
2021/08/27 12:46:07;;;;;;;5.10;1.33;;;18.70;99.90;;;;;;5079364;28;20569;-88
2021/08/27 12:48:34;;;;;;;3.60;1.30;;;18.60;99.90;;;;;;5066551;28;20135;-88
2021/08/27 12:51:03;;;;;;;3.65;1.15;;;18.40;99.90;;;;;;5056394;28;20530;-88
2021/08/27 12:53:35;;;;;;;3.03;1.30;;;18.60;99.90;;;;;;5056186;28;20029;-88